Brisbane, Queensland, Australia, Latitude 27°S 23' 52", Longitude 152° E 55' 35", Elevation 76 m

Sat 21 May 2022 12:10:03 am: Temperature: 15.6 °C, Humidity: 94 %, Wind speed: 0 km/h, Wind Gust: 2 km/h, Rain today: 0.0 mm, MSLP: 1024.8 hPa

Website under continual development from 11 years of weather data. Please contact us if you find issues or like to provide feedback.

Recent Observations

This page presents the weather data from the last 72 hours at 30 minute intervals.

Last updated at 12:10:03 am AEST on Sat 21 May 2022.

Last 24 hours
Date/Time(AEST) Temp. ( °C) Dew Point ( °C) Relative Humidity (%) Apparent Temp. ( °C) Wind Direction Wind Speed (kph) Wind Gust (kph) Wind Speed (kts) Wind Gust (kts) MSL Pressure (hPa) Rain since midnight (mm)
21/05 12:10 am 15.6 14.7 94 17.1 W 0 2 0 1 1024.8 0.0
20/05 11:40 pm 15.7 14.7 94 17.2 SW 0 6 0 3 1024.8 4.4
20/05 11:10 pm 15.8 14.6 93 16.6 S 1 6 1 3 1025.2 4.4
20/05 10:40 pm 16.0 14.8 92 17.5 SSW 0 6 0 3 1025.4 4.2
20/05 10:10 pm 15.9 14.6 92 17.4 CALM 0 2 0 1 1025.9 4.0
20/05 9:40 pm 15.9 14.4 91 17.3 SW 0 4 0 2 1025.9 4.0
20/05 9:10 pm 16.3 14.6 90 17.8 SSE 0 4 0 2 1025.2 4.0
20/05 8:40 pm 16.3 14.6 89 14.9 SSE 4 10 2 5 1024.8 4.0
20/05 8:10 pm 16.3 14.8 91 17.2 SSE 1 8 1 4 1025.0 4.0
20/05 7:40 pm 16.3 14.9 91 15.1 S 4 12 2 6 1025.3 4.0
20/05 7:10 pm 16.4 15.2 92 14.6 S 5 12 3 6 1025.2 4.0
20/05 6:40 pm 16.6 15.4 93 15.6 SSE 4 12 2 6 1025.2 4.0
20/05 6:10 pm 16.7 15.7 94 16.5 S 3 8 2 4 1024.9 4.0
20/05 5:40 pm 16.8 15.9 94 16.6 S 3 8 2 4 1024.6 4.0
20/05 5:10 pm 16.9 15.8 93 18.8 S 0 4 0 2 1024.7 4.0
20/05 4:40 pm 17.1 15.8 92 16.9 SSE 3 8 2 4 1024.7 3.8
20/05 4:10 pm 17.4 16.4 94 18.9 S 1 6 1 3 1024.3 3.6
20/05 3:40 pm 17.6 16.4 93 19.1 S 1 8 1 4 1024.7 3.4
20/05 3:10 pm 17.6 16.5 93 17.7 S 3 10 2 5 1023.8 3.2
20/05 2:40 pm 17.7 16.6 94 17.9 S 3 8 2 4 1023.9 3.2
20/05 2:10 pm 18.2 17.3 95 20 NNW 1 12 1 6 1023.5 3.2
20/05 1:40 pm 17.9 16.8 93 18.8 SSE 2 8 1 4 1023.9 3.0
20/05 1:10 pm 19.2 17.1 88 21.6 SSE 0 6 0 3 1024.0 0.0
20/05 12:40 pm 19.9 17.0 84 17.4 SSE 7 12 4 6 1023.7 0.0
20/05 12:10 pm 20.1 16.4 80 18.8 S 5 10 3 5 1024.5 0.0
20/05 11:40 am 20.4 16.7 79 19.1 SSE 5 12 3 6 1024.2 0.0
20/05 11:10 am 19.4 16.2 82 20.8 SSE 1 10 1 5 1024.7 0.0
20/05 10:40 am 19.1 15.9 82 21.1 SE 0 6 0 3 1024.9 0.0
20/05 10:10 am 18.4 15.7 84 19.6 S 1 8 1 4 1025.0 0.0
20/05 9:40 am 18.7 15.4 81 18.4 S 3 15 2 8 1025.2 0.0
20/05 9:10 am 18.2 15.0 82 19.1 S 4 15 2 8 1025.1 0.0
20/05 8:40 am 17.7 14.9 84 16.5 S 4 15 2 8 1025.1 0.0
20/05 8:10 am 17.2 14.7 85 17.3 S 2 8 1 4 1025.1 0.0
20/05 7:40 am 16.7 14.4 86 16.7 SSW 2 6 1 3 1024.9 0.0
20/05 7:10 am 16.6 14.4 87 15.9 S 3 6 2 3 1024.4 0.0
20/05 6:40 am 16.6 14.4 88 16 S 3 8 2 4 1024.2 0.0
20/05 6:10 am 16.6 14.6 88 16 S 3 8 2 4 1023.6 0.0
20/05 5:40 am 16.7 14.8 88 14.7 S 5 10 3 5 1023.4 0.0
20/05 5:10 am 16.8 14.9 88 14.8 S 5 10 3 5 1023.2 0.0
20/05 4:40 am 17.1 15.1 88 15.9 S 4 10 2 5 1023.1 0.0
20/05 4:10 am 17.1 15.2 88 16.6 S 3 8 2 4 1023.0 0.0
20/05 3:40 am 17.2 15.2 88 16.8 S 3 10 2 5 1022.7 0.0
20/05 3:10 am 17.3 15.3 88 18.3 SSE 1 8 1 4 1022.6 0.0
20/05 2:40 am 17.4 15.3 88 17.1 S 3 8 2 4 1022.5 0.0
20/05 2:10 am 17.5 15.3 87 17.8 SSE 2 8 1 4 1022.6 0.0
20/05 1:40 am 17.6 15.5 88 18 S 2 10 1 5 1022.9 0.0
20/05 1:10 am 17.5 15.6 89 18.7 S 1 10 1 5 1023.1 0.0
20/05 12:40 am 17.6 15.6 88 18.7 S 1 6 1 3 1023.3 0.0
24 to 48 hours ago
Date/Time(AEST) Temp. °C Dew Point °C Relative Humidity % Appararent Temp. °C Wind Direction Wind Speed (kph) Wind Gust (kph) Wind Speed (kts) Wind Gust (kts) MSL Pressure (hPa) Rain since midnight (mm)
20/05 12:10 am 18.0 15.9 88 20 SSW 0 4 0 2 1023.6 0.0
19/05 11:40 pm 18.5 15.8 84 19.7 SSE 1 6 1 3 1023.7 0.0
19/05 11:10 pm 18.6 15.9 84 20.5 CALM 0 2 0 1 1023.8 0.0
19/05 10:40 pm 18.8 15.9 83 20 S 1 4 1 2 1024.1 0.0
19/05 10:10 pm 18.9 15.9 83 20.2 SE 1 6 1 3 1023.8 0.0
19/05 9:40 pm 18.6 15.8 84 19.8 SSE 1 8 1 4 1023.7 0.0
19/05 9:10 pm 18.8 15.9 84 20.8 S 0 2 0 1 1023.8 0.0
19/05 8:40 pm 18.9 16.0 83 20.9 SSE 0 4 0 2 1023.4 0.0
19/05 8:10 pm 19.2 16.2 83 20.6 SSE 1 6 1 3 1023.5 0.0
19/05 7:40 pm 19.3 16.3 83 20.7 ESE 1 6 1 3 1023.2 0.0
19/05 7:10 pm 19.4 16.4 83 21.6 SSE 0 6 0 3 1022.8 0.0
19/05 6:40 pm 19.6 16.5 83 21.8 ESE 0 6 0 3 1022.4 0.0
19/05 6:10 pm 19.6 16.6 83 21.8 CALM 0 2 0 1 1022.1 0.0
19/05 5:40 pm 19.9 16.7 82 22.2 CALM 0 4 0 2 1021.9 0.0
19/05 5:10 pm 20.1 16.8 81 21.7 E 1 8 1 4 1021.4 0.0
19/05 4:40 pm 20.6 16.9 80 20.9 ESE 3 12 2 6 1021.2 0.0
19/05 4:10 pm 21.0 17.2 79 21.4 E 3 14 2 8 1020.8 0.0
19/05 3:40 pm 21.2 17.3 79 20.9 E 4 10 2 5 1020.7 0.0
19/05 3:10 pm 21.7 17.6 78 21.6 E 4 14 2 8 1020.5 0.0
19/05 2:40 pm 21.3 17.6 80 22.6 E 2 8 1 4 1020.3 0.0
19/05 2:10 pm 21.4 18.1 81 23.5 ESE 1 8 1 4 1020.5 0.0
19/05 1:40 pm 21.3 17.8 81 21.3 ESE 4 14 2 8 1020.4 0.0
19/05 1:10 pm 21.9 18.1 79 21.2 E 5 15 3 8 1020.4 0.0
19/05 12:40 pm 21.8 18.4 82 24.1 ESE 1 8 1 4 1020.7 0.0
19/05 12:10 pm 20.9 18.4 86 23.9 SE 0 4 0 2 1020.9 0.0
19/05 11:40 am 21.1 18.7 86 23.5 SSE 1 6 1 3 1021.2 0.0
19/05 11:10 am 20.8 18.7 88 23.2 S 1 4 1 2 1021.4 0.0
19/05 10:40 am 20.5 18.3 88 20.7 SSE 4 17 2 9 1021.9 0.0
19/05 10:10 am 20.1 18.2 89 20.9 ESE 3 8 2 4 1022.1 0.0
19/05 9:40 am 21.1 18.6 86 20 ESE 6 15 3 8 1021.9 0.0
19/05 9:10 am 21.1 18.8 87 19.4 SE 2 6 1 3 1021.5 0.0
19/05 8:40 am 18.7 17.9 95 20 SSW 2 6 1 3 1021.5 0.0
19/05 8:10 am 17.9 17.4 96 17.6 S 4 10 2 5 1021.7 0.0
19/05 7:40 am 17.6 17.2 98 18.7 SSE 2 8 1 4 1021.3 0.0
19/05 7:10 am 17.4 17.2 98 19.1 S 1 8 1 4 1020.6 0.0
19/05 6:40 am 17.4 17.2 98 19.1 SE 1 6 1 3 1020.3 0.0
19/05 6:10 am 17.6 17.2 98 20.1 CALM 0 0 0 0 1019.7 0.0
19/05 5:40 am 17.9 17.6 98 19.8 SE 1 6 1 3 1019.3 0.0
19/05 5:10 am 18.1 17.8 98 20.1 SSE 1 8 1 4 1019.2 0.0
19/05 4:40 am 18.1 17.7 98 20.8 CALM 0 0 0 0 1018.6 0.0
19/05 4:10 am 18.0 17.7 98 20.7 CALM 0 2 0 1 1018.7 0.0
19/05 3:40 am 17.8 17.5 98 20.4 CALM 0 2 0 1 1018.8 0.0
19/05 3:10 am 18.1 17.7 98 20.8 CALM 0 2 0 1 1018.7 0.0
19/05 2:40 am 18.3 17.9 98 21.1 CALM 0 2 0 1 1018.4 0.0
19/05 2:10 am 18.1 17.7 98 20.8 CALM 0 0 0 0 1018.4 0.0
19/05 1:40 am 18.3 17.9 97 21 CALM 0 0 0 0 1018.5 0.0
19/05 1:10 am 18.7 18.3 97 21.6 CALM 0 0 0 0 1018.4 0.0
19/05 12:40 am 18.4 18.0 97 21.2 CALM 0 0 0 0 1018.9 0.0
48 to 72 hours ago
Date/Time(AEST) Temp. °C Dew Point °C Relative Humidity % Appararent Temp. °C Wind Direction Wind Speed (kph) Wind Gust (kph) Wind Speed (kts) Wind Gust (kts) MSL Pressure (hPa) Rain since midnight (mm)
19/05 12:10 am 18.5 18.0 97 21.3 CALM 0 0 0 0 1018.6 0.0
18/05 11:40 pm 18.9 18.4 97 21.9 CALM 0 0 0 0 1018.6 0.4
18/05 11:10 pm 19.3 18.8 97 22.4 CALM 0 0 0 0 1018.9 0.4
18/05 10:40 pm 19.3 18.8 97 22.4 CALM 0 0 0 0 1018.9 0.4
18/05 10:10 pm 19.3 18.7 96 22.4 CALM 0 0 0 0 1019.0 0.4
18/05 9:40 pm 19.6 19.1 96 22.8 CALM 0 0 0 0 1018.9 0.4
18/05 9:10 pm 19.7 19.1 96 23 CALM 0 0 0 0 1019.0 0.4
18/05 8:40 pm 19.7 19.0 96 23 CALM 0 0 0 0 1018.8 0.4
18/05 8:10 pm 20.0 19.3 96 23.4 CALM 0 2 0 1 1018.5 0.4
18/05 7:40 pm 20.1 19.3 95 23.5 CALM 0 0 0 0 1018.3 0.4
18/05 7:10 pm 20.4 19.5 94 23.8 N 0 2 0 1 1018.3 0.4
18/05 6:40 pm 20.7 19.4 93 24.2 CALM 0 0 0 0 1017.9 0.4
18/05 6:10 pm 21.3 19.9 92 25 CALM 0 2 0 1 1017.8 0.4
18/05 5:40 pm 22.0 20.2 90 25.8 CALM 0 2 0 1 1017.4 0.4
18/05 5:10 pm 22.8 20.4 86 26.7 CALM 0 0 0 0 1017.2 0.4
18/05 4:40 pm 23.8 20.6 82 27.1 NE 1 4 1 2 1016.8 0.4
18/05 4:10 pm 25.0 20.9 78 26.3 NNE 4 8 2 4 1016.5 0.4
18/05 3:40 pm 25.4 20.8 76 29.5 CALM 0 0 0 0 1016.3 0.4
18/05 3:10 pm 26.9 21.4 72 29.2 SSW 3 10 2 5 1016.4 0.4
18/05 2:40 pm 26.7 20.7 70 28.7 S 3 8 2 4 1016.3 0.4
18/05 2:10 pm 26.2 21.1 74 29.1 ESE 2 6 1 3 1016.5 0.4
18/05 1:40 pm 25.6 21.4 78 27.2 ESE 4 10 2 5 1016.5 0.2
18/05 1:10 pm 25.0 20.8 78 27 S 3 6 2 3 1016.7 0.2
18/05 12:40 pm 24.7 21.0 80 28.9 N 0 6 0 3 1016.9 0.2
18/05 12:10 pm 25.6 21.3 77 26.4 S 5 14 3 8 1017.5 0.2
18/05 11:40 am 24.3 20.6 80 25.5 ESE 4 8 2 4 1018.1 0.2
18/05 11:10 am 24.4 20.8 81 27.1 ESE 2 8 1 4 1018.5 0.2
18/05 10:40 am 24.2 21.2 83 28.4 E 0 4 0 2 1018.8 0.2
18/05 10:10 am 23.4 20.9 86 25.4 S 3 8 2 4 1019.0 0.2
18/05 9:40 am 21.3 19.9 92 22.2 S 4 10 2 5 1019.2 0.2
18/05 9:10 am 20.7 19.5 93 21.4 SSE 3 8 2 4 1019.2 0.2
18/05 8:40 am 20.2 19.2 94 21.4 S 3 8 2 4 1019.2 0.2
18/05 8:10 am 19.8 19.0 95 20.2 S 4 8 2 4 1018.9 0.2
18/05 7:40 am 19.4 18.9 97 22.6 CALM 0 0 0 0 1018.7 0.2
18/05 7:10 am 19.2 18.7 97 22.3 CALM 0 0 0 0 1018.4 0.2
18/05 6:40 am 19.1 18.6 97 22.2 CALM 0 0 0 0 1017.9 0.2
18/05 6:10 am 19.1 18.6 97 22.2 CALM 0 0 0 0 1017.7 0.2
18/05 5:40 am 19.2 18.7 97 22.3 CALM 0 0 0 0 1017.5 0.2
18/05 5:10 am 19.2 18.7 97 22.3 CALM 0 0 0 0 1017.3 0.2
18/05 4:40 am 19.2 18.7 96 22.2 CALM 0 0 0 0 1017.1 0.2
18/05 4:10 am 19.3 18.7 96 22.4 CALM 0 0 0 0 1017.0 0.2
18/05 3:40 am 19.3 18.7 96 22.4 CALM 0 0 0 0 1017.0 0.2
18/05 3:10 am 19.3 18.6 96 22.4 CALM 0 0 0 0 1016.9 0.2
18/05 2:40 am 19.4 18.7 96 22.5 CALM 0 0 0 0 1017.0 0.2
18/05 2:10 am 19.6 18.7 95 22.7 CALM 0 0 0 0 1017.2 0.2
18/05 1:40 am 19.8 18.8 94 22.9 CALM 0 0 0 0 1017.7 0.2
18/05 1:10 am 20.1 18.9 93 23.3 CALM 0 0 0 0 1017.8 0.2
18/05 12:40 am 20.1 18.8 92 22.5 WSW 1 8 1 4 1018.2 0.0